createdAt,value
2023-04-04T00:00:28.002Z,98108.53
2023-04-04T00:03:00.848Z,98109.29
2023-04-04T00:05:34.649Z,98112.15
2023-04-04T00:08:07.615Z,98112.39
2023-04-04T00:10:40.379Z,98113.76
2023-04-04T00:13:13.132Z,98106.66
2023-04-04T00:15:45.976Z,98102.63
2023-04-04T00:18:18.597Z,98104.45
2023-04-04T00:20:51.033Z,98101.63
2023-04-04T00:23:23.858Z,98107.39
2023-04-04T00:25:56.527Z,98111.67
2023-04-04T00:28:29.001Z,98112.87
2023-04-04T00:31:02.891Z,98110.91
2023-04-04T00:33:35.517Z,98109.98
2023-04-04T00:36:09.346Z,98109.45
2023-04-04T00:38:42.058Z,98107.87
2023-04-04T00:41:15.144Z,98110.83
2023-04-04T00:43:48.501Z,98111.20
2023-04-04T00:46:21.101Z,98112.45
2023-04-04T00:48:55.369Z,98115.06
2023-04-04T00:51:27.895Z,98116.38
2023-04-04T00:54:01.030Z,98114.10
2023-04-04T00:56:35.005Z,98115.55
2023-04-04T00:59:08.113Z,98112.83
2023-04-04T04:34:46.286Z,98090.13
2023-04-04T04:37:18.915Z,98089.83
2023-04-04T04:39:54.493Z,98093.06
2023-04-04T04:42:54.903Z,98091.44
2023-04-04T04:45:28.037Z,98092.94
2023-04-04T04:48:09.986Z,98093.54
2023-04-04T04:50:49.270Z,98097.83
2023-04-04T04:53:27.460Z,98097.80
2023-04-04T04:55:59.977Z,98099.98
2023-04-04T04:58:32.298Z,98097.20
2023-04-04T05:01:06.249Z,98097.67
2023-04-04T05:03:41.569Z,98097.92
2023-04-04T05:06:15.931Z,98100.92
2023-04-04T05:08:49.477Z,98104.19
2023-04-04T05:11:40.190Z,98107.66
2023-04-04T05:14:13.241Z,98109.00
2023-04-04T05:16:52.353Z,98107.52
2023-04-04T05:19:24.682Z,98106.61
2023-04-04T05:21:58.857Z,98108.86
2023-04-04T05:24:40.001Z,98115.29
2023-04-04T05:27:12.553Z,98111.59
2023-04-04T05:29:49.483Z,98113.21
2023-04-04T05:32:21.976Z,98113.85
2023-04-04T05:34:59.589Z,98114.52
2023-04-04T05:37:34.882Z,98118.77
2023-04-04T05:40:06.572Z,98123.25
2023-04-04T05:42:39.155Z,98124.36
2023-04-04T05:45:14.296Z,98123.88
2023-04-04T05:47:49.039Z,98120.83
2023-04-04T05:50:21.170Z,98121.03
2023-04-04T05:52:57.393Z,98119.45
2023-04-04T05:55:29.762Z,98117.55
2023-04-04T05:58:02.146Z,98113.37
2023-04-04T06:00:47.772Z,98115.04
2023-04-04T06:03:21.962Z,98123.48
2023-04-04T06:05:56.044Z,98125.95
2023-04-04T06:08:28.873Z,98130.62
2023-04-04T06:11:01.148Z,98131.35
2023-04-04T06:13:33.410Z,98131.28
2023-04-04T06:16:11.403Z,98127.97
2023-04-04T06:18:43.632Z,98129.40
2023-04-04T06:21:16.335Z,98129.50
2023-04-04T06:23:48.674Z,98127.20
2023-04-04T06:26:20.891Z,98126.23
2023-04-04T06:28:53.848Z,98129.10
2023-04-04T06:31:38.457Z,98131.98
2023-04-04T06:34:17.679Z,98130.64
2023-04-04T06:37:15.707Z,98130.62
2023-04-04T06:39:56.913Z,98131.13
2023-04-04T06:42:31.993Z,98128.55
2023-04-04T06:45:15.869Z,98130.14
2023-04-04T06:47:50.351Z,98125.61
2023-04-04T06:50:23.880Z,98129.77
2023-04-04T06:52:55.969Z,98125.94
2023-04-04T06:55:28.853Z,98127.07
2023-04-04T06:58:02.317Z,98126.96
2023-04-04T07:00:34.532Z,98123.77
2023-04-04T07:03:06.664Z,98126.42
2023-04-04T07:05:41.756Z,98124.86
2023-04-04T07:08:13.934Z,98120.23
2023-04-04T07:10:46.576Z,98119.07
2023-04-04T07:13:18.686Z,98120.41
2023-04-04T07:15:51.421Z,98114.99
2023-04-04T07:18:23.642Z,98118.39
2023-04-04T07:20:55.951Z,98121.77
2023-04-04T07:23:28.398Z,98123.58
2023-04-04T07:26:00.581Z,98119.36
2023-04-04T07:28:32.933Z,98123.60
2023-04-04T07:31:05.750Z,98121.13
2023-04-04T07:33:37.904Z,98123.27
2023-04-04T07:36:10.244Z,98122.55
2023-04-04T07:38:42.439Z,98116.83
2023-04-04T07:41:14.871Z,98121.21
2023-04-04T07:43:46.859Z,98118.77
2023-04-04T07:46:20.626Z,98120.01
2023-04-04T07:48:55.853Z,98118.52
2023-04-04T07:51:31.737Z,98119.16
2023-04-04T07:54:04.450Z,98119.38
2023-04-04T07:56:36.626Z,98112.70
2023-04-04T07:59:09.101Z,98115.40
2023-04-04T08:01:41.634Z,98112.05
2023-04-04T08:04:14.017Z,98110.65
2023-04-04T08:06:46.471Z,98108.63
2023-04-04T08:09:18.628Z,98110.05
2023-04-04T08:11:54.013Z,98110.17
2023-04-04T08:14:29.302Z,98109.33
2023-04-04T08:17:01.875Z,98107.63
2023-04-04T08:19:34.184Z,98106.95
2023-04-04T08:22:06.825Z,98105.27
2023-04-04T08:24:39.048Z,98102.42
2023-04-04T08:27:11.398Z,98097.04
2023-04-04T08:29:44.446Z,98097.09
2023-04-04T08:32:16.639Z,98100.70
2023-04-04T08:34:48.896Z,98098.16
2023-04-04T08:37:21.030Z,98094.05
2023-04-04T08:39:53.278Z,98092.69
2023-04-04T08:42:26.663Z,98090.45
2023-04-04T08:45:04.422Z,98089.40
2023-04-04T08:47:41.386Z,98086.68
2023-04-04T08:50:13.969Z,98082.06
2023-04-04T08:52:49.480Z,98083.25
2023-04-04T08:55:22.980Z,98083.91
2023-04-04T08:57:55.988Z,98089.70
2023-04-04T09:00:28.601Z,98084.02
2023-04-04T09:03:08.397Z,98082.54
2023-04-04T09:05:41.717Z,98076.41
2023-04-04T09:08:18.473Z,98072.11
2023-04-04T09:10:51.768Z,98074.32
2023-04-04T09:13:23.863Z,98067.98
2023-04-04T09:15:59.113Z,98067.23
2023-04-04T09:18:32.042Z,98070.69
2023-04-04T09:21:12.847Z,98074.17
2023-04-04T09:23:46.215Z,98077.42
2023-04-04T09:26:19.756Z,98076.91
2023-04-04T09:28:55.934Z,98070.72
2023-04-04T09:31:28.696Z,98069.36
2023-04-04T09:34:02.384Z,98067.82
2023-04-04T09:36:35.428Z,98070.90
2023-04-04T09:39:08.520Z,98076.58
2023-04-04T09:41:42.831Z,98077.09
2023-04-04T09:44:15.885Z,98073.48
2023-04-04T09:46:52.401Z,98072.61
2023-04-04T09:49:24.619Z,98071.73
2023-04-04T09:51:58.069Z,98068.66
2023-04-04T09:54:32.921Z,98069.54
2023-04-04T09:57:05.463Z,98071.44
2023-04-04T09:59:38.096Z,98076.41
2023-04-04T10:02:11.900Z,98076.06
2023-04-04T10:04:48.886Z,98073.95
2023-04-04T10:07:24.344Z,98069.52
2023-04-04T10:09:56.599Z,98067.11
2023-04-04T10:12:29.992Z,98064.70
2023-04-04T10:15:02.984Z,98061.05
2023-04-04T10:17:41.173Z,98061.98
2023-04-04T10:20:14.665Z,98051.05
2023-04-04T10:22:48.055Z,98049.15
2023-04-04T10:25:20.628Z,98046.42
2023-04-04T10:27:54.155Z,98040.27
2023-04-04T10:30:26.238Z,98042.67
2023-04-04T10:33:08.630Z,98040.77
2023-04-04T10:35:42.702Z,98043.19
2023-04-04T10:38:16.243Z,98050.54
2023-04-04T10:40:51.784Z,98046.95
2023-04-04T10:43:29.056Z,98042.32
2023-04-04T10:46:05.116Z,98040.97
2023-04-04T10:48:38.313Z,98037.36
2023-04-04T10:53:58.796Z,98035.30
2023-04-04T10:56:32.013Z,98037.36
2023-04-04T10:59:20.322Z,98036.16
2023-04-04T11:01:57.782Z,98035.80
2023-04-04T11:04:44.613Z,98038.73
2023-04-04T11:07:18.932Z,98042.15
2023-04-04T11:09:56.311Z,98035.65
2023-04-04T11:12:36.516Z,98038.05
2023-04-04T11:15:14.732Z,98038.19
2023-04-04T11:18:17.510Z,98039.73
2023-04-04T11:20:56.072Z,98039.22
2023-04-04T11:23:28.755Z,98030.84
2023-04-04T11:26:01.845Z,98028.62
2023-04-04T11:28:47.464Z,98029.48
2023-04-04T11:31:45.747Z,98023.33
2023-04-04T11:34:31.304Z,98021.95
2023-04-04T11:37:19.327Z,98029.80
2023-04-04T11:39:59.414Z,98030.65
2023-04-04T11:42:39.102Z,98030.61
2023-04-04T11:45:11.797Z,98029.25
2023-04-04T11:47:50.652Z,98028.39
2023-04-04T11:50:23.524Z,98029.39
2023-04-04T11:52:57.380Z,98028.84
2023-04-04T11:55:30.184Z,98033.42
2023-04-04T11:58:12.616Z,98030.21
2023-04-04T12:00:45.416Z,98029.88
2023-04-04T12:03:19.750Z,98030.39
2023-04-04T12:05:53.283Z,98029.53
2023-04-04T12:08:26.037Z,98029.19
2023-04-04T12:10:58.275Z,98032.08
2023-04-04T12:13:35.236Z,98034.30
2023-04-04T12:16:08.281Z,98032.02
2023-04-04T12:18:40.620Z,98032.91
2023-04-04T12:21:13.519Z,98034.95
2023-04-04T12:23:46.150Z,98036.45
2023-04-04T12:26:19.356Z,98034.71
2023-04-04T12:28:53.751Z,98033.70
2023-04-04T12:31:27.517Z,98033.19
2023-04-04T12:34:00.244Z,98035.41
2023-04-04T12:36:33.288Z,98032.15
2023-04-04T12:39:07.666Z,98029.52
2023-04-04T12:41:53.248Z,98031.44
2023-04-04T12:44:34.308Z,98029.16
2023-04-04T12:47:07.761Z,98027.98
2023-04-04T12:49:44.723Z,98026.04
2023-04-04T12:52:24.746Z,98030.24
2023-04-04T12:55:08.043Z,98032.40
2023-04-04T12:57:40.814Z,98032.73
2023-04-04T13:00:14.469Z,98034.27
2023-04-04T13:02:47.233Z,98034.59
2023-04-04T13:05:22.482Z,98031.42
2023-04-04T13:08:06.877Z,98026.68
2023-04-04T13:11:08.440Z,98024.19
2023-04-04T13:13:44.406Z,98017.16
2023-04-04T13:16:31.475Z,98013.98
2023-04-04T13:19:03.875Z,98009.08
2023-04-04T13:21:36.734Z,98011.36
2023-04-04T13:24:10.823Z,98010.69
2023-04-04T13:26:43.076Z,98005.77
2023-04-04T13:29:18.148Z,98005.31
2023-04-04T13:31:50.305Z,98007.02
2023-04-04T13:34:28.504Z,98001.04
2023-04-04T13:37:01.025Z,98000.89
2023-04-04T13:39:37.757Z,97999.70
2023-04-04T13:42:13.378Z,98001.98
2023-04-04T13:44:48.819Z,98000.80
2023-04-04T13:47:23.226Z,97998.76
2023-04-04T13:49:56.256Z,97998.91
2023-04-04T13:52:33.719Z,97994.17
2023-04-04T13:55:07.544Z,97994.73
2023-04-04T13:57:39.765Z,97990.98
2023-04-04T14:00:15.057Z,97989.94
2023-04-04T14:02:49.970Z,97985.33
2023-04-04T14:05:25.345Z,97987.37
2023-04-04T14:07:57.437Z,97984.63
2023-04-04T14:10:30.149Z,97987.20
2023-04-04T14:13:02.733Z,97990.80
2023-04-04T14:15:35.344Z,97988.90
2023-04-04T14:18:08.216Z,97995.73
2023-04-04T14:20:40.546Z,97996.93
2023-04-04T14:23:12.850Z,98001.00
2023-04-04T14:25:45.164Z,98002.16
2023-04-04T14:28:17.488Z,98005.74
2023-04-04T14:30:52.717Z,98006.04
2023-04-04T14:33:36.798Z,98010.80
2023-04-04T14:36:12.802Z,98005.13
2023-04-04T14:38:45.604Z,98007.44
2023-04-04T14:41:17.858Z,98008.95
2023-04-04T14:43:50.810Z,98008.77
2023-04-04T14:46:23.776Z,98012.12
2023-04-04T14:48:56.572Z,98013.79
2023-04-04T14:51:28.909Z,98019.20
2023-04-04T14:54:02.720Z,98017.48
2023-04-04T14:56:34.924Z,98018.85
2023-04-04T14:59:08.698Z,98019.27
2023-04-04T15:01:40.931Z,98020.11
2023-04-04T15:04:16.097Z,98020.39
2023-04-04T15:06:49.689Z,98021.94
2023-04-04T15:09:23.028Z,98020.20
2023-04-04T15:11:55.075Z,98023.76
2023-04-04T15:14:27.045Z,98018.69
2023-04-04T15:16:59.372Z,98018.69
2023-04-04T15:19:31.816Z,98015.11
2023-04-04T15:22:04.456Z,98013.59
2023-04-04T15:24:36.800Z,98017.00
2023-04-04T15:27:09.323Z,98016.99
2023-04-04T15:29:42.411Z,98015.23
2023-04-04T15:32:14.789Z,98019.33
2023-04-04T15:34:46.962Z,98022.19
2023-04-04T15:37:19.255Z,98022.59
2023-04-04T15:39:54.032Z,98023.39
2023-04-04T15:42:41.690Z,98027.85
2023-04-04T15:45:16.418Z,98029.82
2023-04-04T15:47:48.581Z,98030.27
2023-04-04T15:50:23.294Z,98026.02
2023-04-04T15:52:57.176Z,98032.81
2023-04-04T15:55:30.487Z,98032.98
2023-04-04T15:58:03.041Z,98035.65
2023-04-04T16:00:47.402Z,98040.02
2023-04-04T16:03:20.833Z,98044.43
2023-04-04T16:05:54.034Z,98043.84
2023-04-04T16:08:26.862Z,98043.05
2023-04-04T16:11:00.526Z,98044.98
2023-04-04T16:13:33.009Z,98044.36
2023-04-04T16:16:06.157Z,98042.10
2023-04-04T16:18:38.991Z,98043.30
2023-04-04T16:21:11.282Z,98045.17
2023-04-04T16:23:44.152Z,98049.65
2023-04-04T16:26:16.528Z,98051.31
2023-04-04T16:28:50.400Z,98055.61
2023-04-04T16:31:23.646Z,98056.15
2023-04-04T16:34:00.491Z,98060.19
2023-04-04T16:36:33.774Z,98063.44
2023-04-04T16:39:08.878Z,98062.42
2023-04-04T16:41:43.194Z,98062.67
2023-04-04T16:44:16.574Z,98065.38
2023-04-04T16:46:49.047Z,98065.33
2023-04-04T16:49:21.259Z,98069.37
2023-04-04T16:51:53.504Z,98074.28
2023-04-04T16:54:25.773Z,98069.78
2023-04-04T16:56:58.186Z,98075.64
2023-04-04T16:59:30.434Z,98073.67
2023-04-04T17:02:05.572Z,98077.80
2023-04-04T17:04:41.187Z,98078.57
2023-04-04T17:07:14.508Z,98080.61
2023-04-04T17:09:48.870Z,98081.29
2023-04-04T17:12:21.761Z,98082.36
2023-04-04T17:14:54.950Z,98083.27
2023-04-04T17:17:27.400Z,98083.40
2023-04-04T17:19:59.869Z,98083.58
2023-04-04T17:22:33.001Z,98085.08
2023-04-04T17:25:05.138Z,98087.48
2023-04-04T17:27:39.864Z,98087.82
2023-04-04T17:30:14.510Z,98087.34
2023-04-04T17:32:47.404Z,98092.30
2023-04-04T17:35:19.571Z,98093.14
2023-04-04T17:37:52.095Z,98094.04
2023-04-04T17:40:24.374Z,98092.23
2023-04-04T17:42:56.857Z,98096.20
2023-04-04T17:45:30.428Z,98096.05
2023-04-04T17:48:03.296Z,98102.77
2023-04-04T17:50:35.570Z,98099.63
2023-04-04T17:53:10.889Z,98103.95
2023-04-04T17:55:43.372Z,98106.88
2023-04-04T17:58:16.113Z,98104.86
2023-04-04T18:00:54.513Z,98102.21
2023-04-04T18:03:28.348Z,98103.19
2023-04-04T18:06:03.311Z,98108.06
2023-04-04T18:08:35.550Z,98109.47
2023-04-04T18:11:10.929Z,98107.27
2023-04-04T18:13:43.381Z,98105.18
2023-04-04T18:16:15.705Z,98102.10
2023-04-04T18:18:48.245Z,98100.91
2023-04-04T18:24:47.592Z,98104.96
2023-04-04T18:27:21.244Z,98105.31
2023-04-04T18:29:53.614Z,98106.01
2023-04-04T18:39:22.697Z,98110.75
2023-04-04T18:41:54.974Z,98110.52
2023-04-04T18:44:27.556Z,98106.86
2023-04-04T18:47:04.513Z,98106.52
2023-04-04T18:49:37.432Z,98104.44
2023-04-04T18:52:09.556Z,98101.39
2023-04-04T18:54:42.179Z,98107.95
2023-04-04T18:57:19.493Z,98105.71
2023-04-04T18:59:52.211Z,98103.63
2023-04-04T19:02:24.544Z,98104.30
2023-04-04T19:05:01.683Z,98108.02
2023-04-04T19:07:35.880Z,98106.77
2023-04-04T19:10:10.240Z,98107.67
2023-04-04T19:12:42.852Z,98104.38
2023-04-04T19:15:15.582Z,98103.31
2023-04-04T19:17:48.395Z,98107.23
2023-04-04T19:20:21.945Z,98101.42
2023-04-04T19:22:54.128Z,98104.36
2023-04-04T19:25:26.814Z,98105.10
2023-04-04T19:28:00.065Z,98103.61
2023-04-04T19:30:54.866Z,98102.92
2023-04-04T19:33:28.689Z,98099.70
2023-04-04T19:36:12.053Z,98100.76
2023-04-04T19:38:46.624Z,98101.45
2023-04-04T19:41:37.341Z,98100.76
2023-04-04T19:44:16.734Z,98103.67
2023-04-04T19:46:49.516Z,98102.57
2023-04-04T19:49:24.152Z,98102.45
2023-04-04T19:52:00.779Z,98102.23
2023-04-04T19:54:39.618Z,98105.52
2023-04-04T19:57:21.585Z,98103.64
2023-04-04T20:00:14.295Z,98102.57
2023-04-04T20:02:58.318Z,98105.84
2023-04-04T20:05:53.801Z,98100.48
2023-04-04T20:08:26.412Z,98099.80
2023-04-04T20:10:59.451Z,98098.69
2023-04-04T20:13:33.348Z,98099.77
2023-04-04T20:16:13.281Z,98101.46
2023-04-04T20:18:47.427Z,98100.88
2023-04-04T20:21:23.221Z,98099.47
2023-04-04T20:23:57.938Z,98099.13
2023-04-04T20:26:51.556Z,98100.35
2023-04-04T20:29:26.829Z,98101.48
2023-04-04T20:32:02.783Z,98101.77
2023-04-04T20:34:42.971Z,98101.48
2023-04-04T20:37:22.380Z,98099.44
2023-04-04T20:39:59.457Z,98101.13
2023-04-04T20:42:41.365Z,98099.66
2023-04-04T20:45:47.104Z,98096.39
2023-04-04T20:48:40.110Z,98092.71
2023-04-04T20:51:26.112Z,98093.11
2023-04-04T20:54:01.354Z,98089.16
2023-04-04T20:56:56.943Z,98087.08
2023-04-04T20:59:43.560Z,98086.41
2023-04-04T21:02:20.103Z,98086.73
2023-04-04T21:04:52.689Z,98087.41
2023-04-04T21:07:43.955Z,98087.91
2023-04-04T21:10:46.997Z,98090.90
2023-04-04T21:13:20.724Z,98088.44
2023-04-04T21:16:01.189Z,98086.68
2023-04-04T21:18:35.299Z,98083.38
2023-04-04T21:21:20.367Z,98079.04
2023-04-04T21:23:54.391Z,98080.86
2023-04-04T21:26:41.156Z,98081.10
2023-04-04T21:29:22.641Z,98080.66
2023-04-04T21:31:56.124Z,98083.71
2023-04-04T21:34:29.357Z,98083.35
2023-04-04T21:37:03.884Z,98084.48
2023-04-04T21:39:38.071Z,98082.16
2023-04-04T21:42:10.199Z,98079.92
2023-04-04T21:44:42.402Z,98077.16
2023-04-04T21:47:15.890Z,98078.46
2023-04-04T21:49:48.513Z,98074.99
2023-04-04T21:52:23.129Z,98074.71
2023-04-04T21:54:55.830Z,98072.74
2023-04-04T21:57:27.838Z,98070.77
2023-04-04T21:59:59.996Z,98067.98
2023-04-04T22:02:32.071Z,98064.69
2023-04-04T22:05:04.646Z,98066.48
2023-04-04T22:07:36.750Z,98066.77
2023-04-04T22:10:23.847Z,98064.86
2023-04-04T22:12:59.818Z,98065.09
2023-04-04T22:15:32.240Z,98065.88
2023-04-04T22:18:06.441Z,98064.96
2023-04-04T22:20:40.181Z,98061.11
2023-04-04T22:23:13.467Z,98062.02
2023-04-04T22:25:45.866Z,98064.29
2023-04-04T22:28:18.448Z,98063.92
2023-04-04T22:30:50.579Z,98063.70
2023-04-04T22:33:25.202Z,98060.56
2023-04-04T22:35:58.281Z,98059.01
2023-04-04T22:38:34.404Z,98058.05
2023-04-04T22:41:06.913Z,98059.29
2023-04-04T22:43:39.166Z,98055.17
2023-04-04T22:46:11.451Z,98055.25
2023-04-04T22:48:46.779Z,98055.48
2023-04-04T22:51:21.325Z,98057.11
2023-04-04T22:53:58.260Z,98056.19
2023-04-04T22:56:30.917Z,98051.07
2023-04-04T22:59:04.850Z,98055.95
2023-04-04T23:01:37.224Z,98051.33
2023-04-04T23:04:09.309Z,98048.57
2023-04-04T23:06:41.645Z,98045.51
2023-04-04T23:09:13.738Z,98046.50
2023-04-04T23:11:47.412Z,98040.92
2023-04-04T23:14:19.806Z,98036.15
2023-04-04T23:16:53.134Z,98033.20
